sensor_id;sensor_type;location;lat;lon;timestamp;temperature;humidity
15103;DHT22;7652;53.584;9.998;2023-08-01T00:00:03;17.00;99.90
15103;DHT22;7652;53.584;9.998;2023-08-01T00:03:26;16.90;99.90
15103;DHT22;7652;53.584;9.998;2023-08-01T00:06:48;16.90;99.90
15103;DHT22;7652;53.584;9.998;2023-08-01T00:10:09;16.90;99.90
15103;DHT22;7652;53.584;9.998;2023-08-01T00:13:32;16.90;99.90
15103;DHT22;7652;53.584;9.998;2023-08-01T00:16:54;16.80;99.90
15103;DHT22;7652;53.584;9.998;2023-08-01T00:20:16;16.80;99.90
15103;DHT22;7652;53.584;9.998;2023-08-01T00:23:37;16.70;99.90
15103;DHT22;7652;53.584;9.998;2023-08-01T00:26:59;16.70;99.90
15103;DHT22;7652;53.584;9.998;2023-08-01T00:30:22;16.70;99.90
15103;DHT22;7652;53.584;9.998;2023-08-01T00:33:43;16.70;99.90
15103;DHT22;7652;53.584;9.998;2023-08-01T00:37:05;16.60;99.90
15103;DHT22;7652;53.584;9.998;2023-08-01T00:40:30;16.70;99.90
15103;DHT22;7652;53.584;9.998;2023-08-01T00:43:51;16.50;99.90
15103;DHT22;7652;53.584;9.998;2023-08-01T00:47:14;16.60;99.90
15103;DHT22;7652;53.584;9.998;2023-08-01T00:50:36;16.60;99.90
15103;DHT22;7652;53.584;9.998;2023-08-01T00:53:57;16.60;99.90
15103;DHT22;7652;53.584;9.998;2023-08-01T00:57:19;16.70;99.90
15103;DHT22;7652;53.584;9.998;2023-08-01T01:00:40;16.60;99.90
15103;DHT22;7652;53.584;9.998;2023-08-01T01:04:04;16.60;99.90
15103;DHT22;7652;53.584;9.998;2023-08-01T01:07:26;16.70;99.90
15103;DHT22;7652;53.584;9.998;2023-08-01T01:10:47;16.70;99.90
15103;DHT22;7652;53.584;9.998;2023-08-01T01:14:08;16.60;99.90
15103;DHT22;7652;53.584;9.998;2023-08-01T01:17:30;16.60;99.90
15103;DHT22;7652;53.584;9.998;2023-08-01T01:20:53;16.60;99.90
15103;DHT22;7652;53.584;9.998;2023-08-01T01:24:15;16.60;99.90
15103;DHT22;7652;53.584;9.998;2023-08-01T01:27:37;16.60;99.90
15103;DHT22;7652;53.584;9.998;2023-08-01T01:30:59;16.60;99.90
15103;DHT22;7652;53.584;9.998;2023-08-01T01:34:21;16.50;99.90
15103;DHT22;7652;53.584;9.998;2023-08-01T01:37:44;16.60;99.90
15103;DHT22;7652;53.584;9.998;2023-08-01T01:41:06;16.60;99.90
15103;DHT22;7652;53.584;9.998;2023-08-01T01:44:27;16.60;99.90
15103;DHT22;7652;53.584;9.998;2023-08-01T01:47:49;16.60;99.90
15103;DHT22;7652;53.584;9.998;2023-08-01T01:51:10;16.60;99.90
15103;DHT22;7652;53.584;9.998;2023-08-01T01:54:33;16.60;99.90
15103;DHT22;7652;53.584;9.998;2023-08-01T01:57:54;16.60;99.90
15103;DHT22;7652;53.584;9.998;2023-08-01T02:01:16;16.60;99.90
15103;DHT22;7652;53.584;9.998;2023-08-01T02:04:38;16.60;99.90
15103;DHT22;7652;53.584;9.998;2023-08-01T02:07:59;16.60;99.90
15103;DHT22;7652;53.584;9.998;2023-08-01T02:11:22;16.60;99.90
15103;DHT22;7652;53.584;9.998;2023-08-01T02:14:43;16.60;99.90
15103;DHT22;7652;53.584;9.998;2023-08-01T02:18:05;16.60;99.90
15103;DHT22;7652;53.584;9.998;2023-08-01T02:21:26;16.70;99.90
15103;DHT22;7652;53.584;9.998;2023-08-01T02:24:48;16.70;99.90
15103;DHT22;7652;53.584;9.998;2023-08-01T02:28:11;16.70;99.90
15103;DHT22;7652;53.584;9.998;2023-08-01T02:31:33;16.70;99.90
15103;DHT22;7652;53.584;9.998;2023-08-01T02:34:55;16.70;99.90
15103;DHT22;7652;53.584;9.998;2023-08-01T02:38:17;16.70;99.90
15103;DHT22;7652;53.584;9.998;2023-08-01T02:41:38;16.70;99.90
15103;DHT22;7652;53.584;9.998;2023-08-01T02:45:01;16.70;99.90
15103;DHT22;7652;53.584;9.998;2023-08-01T02:48:22;16.70;99.90
15103;DHT22;7652;53.584;9.998;2023-08-01T02:51:44;16.70;99.90
15103;DHT22;7652;53.584;9.998;2023-08-01T02:55:06;16.80;99.90
15103;DHT22;7652;53.584;9.998;2023-08-01T02:58:28;16.70;99.90
15103;DHT22;7652;53.584;9.998;2023-08-01T03:01:51;16.70;99.90
15103;DHT22;7652;53.584;9.998;2023-08-01T03:05:12;16.70;99.90
15103;DHT22;7652;53.584;9.998;2023-08-01T03:08:33;16.70;99.90
15103;DHT22;7652;53.584;9.998;2023-08-01T03:11:55;16.80;99.90
15103;DHT22;7652;53.584;9.998;2023-08-01T03:15:16;16.70;99.90
15103;DHT22;7652;53.584;9.998;2023-08-01T03:18:39;16.70;99.90
15103;DHT22;7652;53.584;9.998;2023-08-01T03:22:00;16.70;99.90
15103;DHT22;7652;53.584;9.998;2023-08-01T03:25:22;16.70;99.90
15103;DHT22;7652;53.584;9.998;2023-08-01T03:28:43;16.70;99.90
15103;DHT22;7652;53.584;9.998;2023-08-01T03:32:05;16.70;99.90
15103;DHT22;7652;53.584;9.998;2023-08-01T03:35:28;16.70;99.90
15103;DHT22;7652;53.584;9.998;2023-08-01T03:38:49;16.70;99.90
15103;DHT22;7652;53.584;9.998;2023-08-01T03:42:11;16.80;99.90
15103;DHT22;7652;53.584;9.998;2023-08-01T03:45:33;16.80;99.90
15103;DHT22;7652;53.584;9.998;2023-08-01T03:48:55;16.70;99.90
15103;DHT22;7652;53.584;9.998;2023-08-01T03:52:18;16.80;99.90
15103;DHT22;7652;53.584;9.998;2023-08-01T03:55:40;16.70;99.90
15103;DHT22;7652;53.584;9.998;2023-08-01T03:59:02;16.70;99.90
15103;DHT22;7652;53.584;9.998;2023-08-01T04:02:25;16.70;99.90
15103;DHT22;7652;53.584;9.998;2023-08-01T04:05:47;16.80;99.90
15103;DHT22;7652;53.584;9.998;2023-08-01T04:09:09;16.80;99.90
15103;DHT22;7652;53.584;9.998;2023-08-01T04:12:32;16.70;99.90
15103;DHT22;7652;53.584;9.998;2023-08-01T04:15:54;16.80;99.90
15103;DHT22;7652;53.584;9.998;2023-08-01T04:19:16;16.70;99.90
15103;DHT22;7652;53.584;9.998;2023-08-01T04:22:37;16.70;99.90
15103;DHT22;7652;53.584;9.998;2023-08-01T04:26:00;16.70;99.90
15103;DHT22;7652;53.584;9.998;2023-08-01T04:29:21;16.70;99.90
15103;DHT22;7652;53.584;9.998;2023-08-01T04:32:42;16.70;99.90
15103;DHT22;7652;53.584;9.998;2023-08-01T04:36:04;16.70;99.90
15103;DHT22;7652;53.584;9.998;2023-08-01T04:39:25;16.60;99.90
15103;DHT22;7652;53.584;9.998;2023-08-01T04:42:48;16.60;99.90
15103;DHT22;7652;53.584;9.998;2023-08-01T04:46:10;16.60;99.90
15103;DHT22;7652;53.584;9.998;2023-08-01T04:49:34;16.70;99.90
15103;DHT22;7652;53.584;9.998;2023-08-01T04:52:56;16.70;99.90
15103;DHT22;7652;53.584;9.998;2023-08-01T04:56:17;16.70;99.90
15103;DHT22;7652;53.584;9.998;2023-08-01T04:59:40;16.70;99.90
15103;DHT22;7652;53.584;9.998;2023-08-01T05:03:02;16.70;99.90
15103;DHT22;7652;53.584;9.998;2023-08-01T05:06:23;16.70;99.90
15103;DHT22;7652;53.584;9.998;2023-08-01T05:09:45;16.70;99.90
15103;DHT22;7652;53.584;9.998;2023-08-01T05:13:06;16.70;99.90
15103;DHT22;7652;53.584;9.998;2023-08-01T05:16:29;16.70;99.90
15103;DHT22;7652;53.584;9.998;2023-08-01T05:19:50;16.70;99.90
15103;DHT22;7652;53.584;9.998;2023-08-01T05:23:12;16.70;99.90
15103;DHT22;7652;53.584;9.998;2023-08-01T05:26:34;16.70;99.90
15103;DHT22;7652;53.584;9.998;2023-08-01T05:29:55;16.70;99.90
15103;DHT22;7652;53.584;9.998;2023-08-01T05:33:18;16.70;99.90
15103;DHT22;7652;53.584;9.998;2023-08-01T05:36:40;16.70;99.90
15103;DHT22;7652;53.584;9.998;2023-08-01T05:40:02;16.70;99.90
15103;DHT22;7652;53.584;9.998;2023-08-01T05:43:24;16.70;99.90
15103;DHT22;7652;53.584;9.998;2023-08-01T05:46:45;16.70;99.90
15103;DHT22;7652;53.584;9.998;2023-08-01T05:50:09;16.80;99.90
15103;DHT22;7652;53.584;9.998;2023-08-01T05:53:31;16.80;99.90
15103;DHT22;7652;53.584;9.998;2023-08-01T05:56:53;16.80;99.90
15103;DHT22;7652;53.584;9.998;2023-08-01T06:00:15;16.80;99.90
15103;DHT22;7652;53.584;9.998;2023-08-01T06:03:37;16.90;99.90
15103;DHT22;7652;53.584;9.998;2023-08-01T06:06:59;16.90;99.90
15103;DHT22;7652;53.584;9.998;2023-08-01T06:10:22;17.00;99.90
15103;DHT22;7652;53.584;9.998;2023-08-01T06:13:44;16.90;99.90
15103;DHT22;7652;53.584;9.998;2023-08-01T06:17:05;16.90;99.90
15103;DHT22;7652;53.584;9.998;2023-08-01T06:20:27;16.90;99.90
15103;DHT22;7652;53.584;9.998;2023-08-01T06:23:49;16.90;99.90
15103;DHT22;7652;53.584;9.998;2023-08-01T06:27:11;16.90;99.90
15103;DHT22;7652;53.584;9.998;2023-08-01T06:30:34;16.90;99.90
15103;DHT22;7652;53.584;9.998;2023-08-01T06:33:55;17.00;99.90
15103;DHT22;7652;53.584;9.998;2023-08-01T06:37:16;17.00;99.90
15103;DHT22;7652;53.584;9.998;2023-08-01T06:40:39;17.00;99.90
15103;DHT22;7652;53.584;9.998;2023-08-01T06:44:01;17.00;99.90
15103;DHT22;7652;53.584;9.998;2023-08-01T06:47:23;17.00;99.90
15103;DHT22;7652;53.584;9.998;2023-08-01T06:50:44;17.10;99.90
15103;DHT22;7652;53.584;9.998;2023-08-01T06:54:07;17.00;99.90
15103;DHT22;7652;53.584;9.998;2023-08-01T06:57:30;16.90;99.90
15103;DHT22;7652;53.584;9.998;2023-08-01T07:00:51;16.90;99.90
15103;DHT22;7652;53.584;9.998;2023-08-01T07:04:13;16.90;99.90
15103;DHT22;7652;53.584;9.998;2023-08-01T07:07:35;17.00;99.90
15103;DHT22;7652;53.584;9.998;2023-08-01T07:10:57;17.10;99.90
15103;DHT22;7652;53.584;9.998;2023-08-01T07:14:20;17.30;99.90
15103;DHT22;7652;53.584;9.998;2023-08-01T07:17:41;17.50;99.90
15103;DHT22;7652;53.584;9.998;2023-08-01T07:21:03;17.70;99.90
15103;DHT22;7652;53.584;9.998;2023-08-01T07:24:25;17.90;99.90
15103;DHT22;7652;53.584;9.998;2023-08-01T07:27:49;18.10;99.90
15103;DHT22;7652;53.584;9.998;2023-08-01T07:31:13;18.20;99.90
15103;DHT22;7652;53.584;9.998;2023-08-01T07:34:34;18.30;99.90
15103;DHT22;7652;53.584;9.998;2023-08-01T07:37:55;18.30;99.90
15103;DHT22;7652;53.584;9.998;2023-08-01T07:41:17;18.30;99.90
15103;DHT22;7652;53.584;9.998;2023-08-01T07:44:38;18.30;99.90
15103;DHT22;7652;53.584;9.998;2023-08-01T07:48:01;18.30;99.90
15103;DHT22;7652;53.584;9.998;2023-08-01T07:51:22;18.50;99.90
15103;DHT22;7652;53.584;9.998;2023-08-01T07:54:43;18.60;99.90
15103;DHT22;7652;53.584;9.998;2023-08-01T07:58:05;18.50;99.90
15103;DHT22;7652;53.584;9.998;2023-08-01T08:01:27;18.40;99.90
15103;DHT22;7652;53.584;9.998;2023-08-01T08:04:49;18.50;99.90
15103;DHT22;7652;53.584;9.998;2023-08-01T08:08:11;18.70;99.90
15103;DHT22;7652;53.584;9.998;2023-08-01T08:11:32;18.80;99.90
15103;DHT22;7652;53.584;9.998;2023-08-01T08:14:54;19.10;99.90
15103;DHT22;7652;53.584;9.998;2023-08-01T08:18:15;19.20;99.90
15103;DHT22;7652;53.584;9.998;2023-08-01T08:21:41;19.20;99.90
15103;DHT22;7652;53.584;9.998;2023-08-01T08:25:03;19.20;99.90
15103;DHT22;7652;53.584;9.998;2023-08-01T08:28:29;19.20;99.90
15103;DHT22;7652;53.584;9.998;2023-08-01T08:31:51;19.20;99.90
15103;DHT22;7652;53.584;9.998;2023-08-01T08:35:13;19.20;99.90
15103;DHT22;7652;53.584;9.998;2023-08-01T08:38:36;19.10;99.90
15103;DHT22;7652;53.584;9.998;2023-08-01T08:41:57;19.00;99.90
15103;DHT22;7652;53.584;9.998;2023-08-01T08:45:21;18.90;99.90
15103;DHT22;7652;53.584;9.998;2023-08-01T08:48:44;18.90;99.90
15103;DHT22;7652;53.584;9.998;2023-08-01T08:52:07;19.20;99.90
15103;DHT22;7652;53.584;9.998;2023-08-01T08:55:30;19.40;99.90
15103;DHT22;7652;53.584;9.998;2023-08-01T08:58:54;19.60;99.90
15103;DHT22;7652;53.584;9.998;2023-08-01T09:02:16;19.70;99.90
15103;DHT22;7652;53.584;9.998;2023-08-01T09:05:42;19.80;99.90
15103;DHT22;7652;53.584;9.998;2023-08-01T09:09:10;19.70;99.90
15103;DHT22;7652;53.584;9.998;2023-08-01T09:12:35;19.40;99.90
15103;DHT22;7652;53.584;9.998;2023-08-01T09:15:56;19.20;99.90
15103;DHT22;7652;53.584;9.998;2023-08-01T09:19:19;18.90;99.90
15103;DHT22;7652;53.584;9.998;2023-08-01T09:22:44;18.70;99.90
15103;DHT22;7652;53.584;9.998;2023-08-01T09:26:12;18.60;99.90
15103;DHT22;7652;53.584;9.998;2023-08-01T09:29:35;18.50;99.90
15103;DHT22;7652;53.584;9.998;2023-08-01T09:32:57;18.40;99.90
15103;DHT22;7652;53.584;9.998;2023-08-01T09:36:20;18.30;99.90
15103;DHT22;7652;53.584;9.998;2023-08-01T09:39:42;18.40;99.90
15103;DHT22;7652;53.584;9.998;2023-08-01T09:43:07;18.50;99.90
15103;DHT22;7652;53.584;9.998;2023-08-01T09:46:30;18.70;99.90
15103;DHT22;7652;53.584;9.998;2023-08-01T09:49:51;18.90;99.90
15103;DHT22;7652;53.584;9.998;2023-08-01T09:53:14;19.10;99.90
15103;DHT22;7652;53.584;9.998;2023-08-01T09:56:35;19.30;99.90
15103;DHT22;7652;53.584;9.998;2023-08-01T09:59:58;19.40;99.90
15103;DHT22;7652;53.584;9.998;2023-08-01T10:03:21;19.60;99.90
15103;DHT22;7652;53.584;9.998;2023-08-01T10:06:46;19.70;99.90
15103;DHT22;7652;53.584;9.998;2023-08-01T10:10:10;19.80;99.90
15103;DHT22;7652;53.584;9.998;2023-08-01T10:13:33;19.90;99.90
15103;DHT22;7652;53.584;9.998;2023-08-01T10:16:56;20.00;99.90
15103;DHT22;7652;53.584;9.998;2023-08-01T10:20:20;20.20;99.90
15103;DHT22;7652;53.584;9.998;2023-08-01T10:23:44;20.20;99.90
15103;DHT22;7652;53.584;9.998;2023-08-01T10:27:11;20.00;99.90
15103;DHT22;7652;53.584;9.998;2023-08-01T10:30:33;19.80;99.90
15103;DHT22;7652;53.584;9.998;2023-08-01T10:34:04;19.70;99.90
15103;DHT22;7652;53.584;9.998;2023-08-01T10:37:38;19.50;99.90
15103;DHT22;7652;53.584;9.998;2023-08-01T10:41:01;19.00;99.90
15103;DHT22;7652;53.584;9.998;2023-08-01T10:44:23;18.50;99.90
15103;DHT22;7652;53.584;9.998;2023-08-01T10:47:44;18.20;99.90
15103;DHT22;7652;53.584;9.998;2023-08-01T10:51:05;18.20;99.90
15103;DHT22;7652;53.584;9.998;2023-08-01T10:54:28;18.20;99.90
15103;DHT22;7652;53.584;9.998;2023-08-01T10:57:51;18.30;99.90
15103;DHT22;7652;53.584;9.998;2023-08-01T11:01:14;18.20;99.90
15103;DHT22;7652;53.584;9.998;2023-08-01T11:04:35;18.10;99.90
15103;DHT22;7652;53.584;9.998;2023-08-01T11:07:59;18.00;99.90
15103;DHT22;7652;53.584;9.998;2023-08-01T11:11:22;17.80;99.90
15103;DHT22;7652;53.584;9.998;2023-08-01T11:14:43;17.50;99.90
15103;DHT22;7652;53.584;9.998;2023-08-01T11:18:05;17.10;99.90
15103;DHT22;7652;53.584;9.998;2023-08-01T11:21:26;16.80;99.90
15103;DHT22;7652;53.584;9.998;2023-08-01T11:24:50;16.60;99.90
15103;DHT22;7652;53.584;9.998;2023-08-01T11:28:15;16.30;99.90
15103;DHT22;7652;53.584;9.998;2023-08-01T11:31:36;16.00;99.90
15103;DHT22;7652;53.584;9.998;2023-08-01T11:34:58;15.90;99.90
15103;DHT22;7652;53.584;9.998;2023-08-01T11:38:20;15.90;99.90
15103;DHT22;7652;53.584;9.998;2023-08-01T11:41:43;16.00;99.90
15103;DHT22;7652;53.584;9.998;2023-08-01T11:45:10;16.10;99.90
15103;DHT22;7652;53.584;9.998;2023-08-01T11:48:32;16.30;99.90
15103;DHT22;7652;53.584;9.998;2023-08-01T11:51:54;16.30;99.90
15103;DHT22;7652;53.584;9.998;2023-08-01T11:55:23;16.40;99.90
15103;DHT22;7652;53.584;9.998;2023-08-01T11:58:44;16.50;99.90
15103;DHT22;7652;53.584;9.998;2023-08-01T12:02:07;16.60;99.90
15103;DHT22;7652;53.584;9.998;2023-08-01T12:05:29;16.80;99.90
15103;DHT22;7652;53.584;9.998;2023-08-01T12:08:52;17.20;99.90
15103;DHT22;7652;53.584;9.998;2023-08-01T12:12:14;17.80;99.90
15103;DHT22;7652;53.584;9.998;2023-08-01T12:15:36;18.10;99.90
15103;DHT22;7652;53.584;9.998;2023-08-01T12:19:04;18.40;99.90
15103;DHT22;7652;53.584;9.998;2023-08-01T12:22:26;18.40;99.90
15103;DHT22;7652;53.584;9.998;2023-08-01T12:25:48;18.30;99.90
15103;DHT22;7652;53.584;9.998;2023-08-01T12:29:09;18.20;99.90
15103;DHT22;7652;53.584;9.998;2023-08-01T12:32:32;18.20;99.90
15103;DHT22;7652;53.584;9.998;2023-08-01T12:35:57;18.30;99.90
15103;DHT22;7652;53.584;9.998;2023-08-01T12:39:18;18.30;99.90
15103;DHT22;7652;53.584;9.998;2023-08-01T12:42:39;18.20;99.90
15103;DHT22;7652;53.584;9.998;2023-08-01T12:46:01;18.20;99.90
15103;DHT22;7652;53.584;9.998;2023-08-01T12:49:22;18.10;99.90
15103;DHT22;7652;53.584;9.998;2023-08-01T12:52:45;18.10;99.90
15103;DHT22;7652;53.584;9.998;2023-08-01T12:56:07;18.00;99.90
15103;DHT22;7652;53.584;9.998;2023-08-01T12:59:29;17.90;99.90
15103;DHT22;7652;53.584;9.998;2023-08-01T13:02:50;17.70;99.90
15103;DHT22;7652;53.584;9.998;2023-08-01T13:06:12;17.60;99.90
15103;DHT22;7652;53.584;9.998;2023-08-01T13:09:35;17.60;99.90
15103;DHT22;7652;53.584;9.998;2023-08-01T13:12:56;17.60;99.90
15103;DHT22;7652;53.584;9.998;2023-08-01T13:16:18;17.60;99.90
15103;DHT22;7652;53.584;9.998;2023-08-01T13:19:39;17.60;99.90
15103;DHT22;7652;53.584;9.998;2023-08-01T13:23:02;17.70;99.90
15103;DHT22;7652;53.584;9.998;2023-08-01T13:26:25;17.90;99.90
15103;DHT22;7652;53.584;9.998;2023-08-01T13:29:48;18.00;99.90
15103;DHT22;7652;53.584;9.998;2023-08-01T13:33:12;18.10;99.90
15103;DHT22;7652;53.584;9.998;2023-08-01T13:36:33;18.10;99.90
15103;DHT22;7652;53.584;9.998;2023-08-01T13:39:56;18.00;99.90
15103;DHT22;7652;53.584;9.998;2023-08-01T13:43:19;18.00;99.90
15103;DHT22;7652;53.584;9.998;2023-08-01T13:46:41;18.00;99.90
15103;DHT22;7652;53.584;9.998;2023-08-01T13:50:04;18.00;99.90
15103;DHT22;7652;53.584;9.998;2023-08-01T13:53:26;18.10;99.90
15103;DHT22;7652;53.584;9.998;2023-08-01T13:56:47;18.50;99.90
15103;DHT22;7652;53.584;9.998;2023-08-01T14:00:11;18.90;99.90
15103;DHT22;7652;53.584;9.998;2023-08-01T14:03:33;19.10;99.90
15103;DHT22;7652;53.584;9.998;2023-08-01T14:06:55;19.10;99.90
15103;DHT22;7652;53.584;9.998;2023-08-01T14:10:17;19.00;99.90
15103;DHT22;7652;53.584;9.998;2023-08-01T14:13:38;19.00;99.90
15103;DHT22;7652;53.584;9.998;2023-08-01T14:17:01;18.80;99.90
15103;DHT22;7652;53.584;9.998;2023-08-01T14:20:23;18.50;99.90
15103;DHT22;7652;53.584;9.998;2023-08-01T14:23:44;17.90;99.90
15103;DHT22;7652;53.584;9.998;2023-08-01T14:27:06;17.40;99.90
15103;DHT22;7652;53.584;9.998;2023-08-01T14:30:28;17.30;99.90
15103;DHT22;7652;53.584;9.998;2023-08-01T14:33:50;17.00;99.90
15103;DHT22;7652;53.584;9.998;2023-08-01T14:37:12;17.10;99.90
15103;DHT22;7652;53.584;9.998;2023-08-01T14:40:34;17.30;99.90
15103;DHT22;7652;53.584;9.998;2023-08-01T14:43:56;17.50;99.90
15103;DHT22;7652;53.584;9.998;2023-08-01T14:47:17;17.60;99.90
15103;DHT22;7652;53.584;9.998;2023-08-01T14:50:40;17.70;99.90
15103;DHT22;7652;53.584;9.998;2023-08-01T14:54:01;17.80;99.90
15103;DHT22;7652;53.584;9.998;2023-08-01T14:57:22;17.70;99.90
15103;DHT22;7652;53.584;9.998;2023-08-01T15:00:44;17.80;99.90
15103;DHT22;7652;53.584;9.998;2023-08-01T15:04:06;17.90;99.90
15103;DHT22;7652;53.584;9.998;2023-08-01T15:07:29;18.10;99.90
15103;DHT22;7652;53.584;9.998;2023-08-01T15:10:51;18.20;99.90
15103;DHT22;7652;53.584;9.998;2023-08-01T15:14:13;18.30;99.90
15103;DHT22;7652;53.584;9.998;2023-08-01T15:17:34;18.50;99.90
15103;DHT22;7652;53.584;9.998;2023-08-01T15:20:56;18.50;99.90
15103;DHT22;7652;53.584;9.998;2023-08-01T15:24:19;18.60;99.90
15103;DHT22;7652;53.584;9.998;2023-08-01T15:27:40;18.60;99.90
15103;DHT22;7652;53.584;9.998;2023-08-01T15:31:03;18.40;99.90
15103;DHT22;7652;53.584;9.998;2023-08-01T15:34:27;18.40;99.90
15103;DHT22;7652;53.584;9.998;2023-08-01T15:37:48;18.30;99.90
15103;DHT22;7652;53.584;9.998;2023-08-01T15:41:11;18.20;99.90
15103;DHT22;7652;53.584;9.998;2023-08-01T15:44:32;18.20;99.90
15103;DHT22;7652;53.584;9.998;2023-08-01T15:47:54;18.30;99.90
15103;DHT22;7652;53.584;9.998;2023-08-01T15:51:15;18.50;99.90
15103;DHT22;7652;53.584;9.998;2023-08-01T15:54:37;18.70;99.90
15103;DHT22;7652;53.584;9.998;2023-08-01T15:57:59;18.80;99.90
15103;DHT22;7652;53.584;9.998;2023-08-01T16:01:21;18.90;99.90
15103;DHT22;7652;53.584;9.998;2023-08-01T16:04:43;19.10;99.90
15103;DHT22;7652;53.584;9.998;2023-08-01T16:08:04;19.20;99.90
15103;DHT22;7652;53.584;9.998;2023-08-01T16:11:26;19.20;99.90
15103;DHT22;7652;53.584;9.998;2023-08-01T16:14:49;19.20;99.90
15103;DHT22;7652;53.584;9.998;2023-08-01T16:18:11;19.10;99.90
15103;DHT22;7652;53.584;9.998;2023-08-01T16:21:32;19.10;99.90
15103;DHT22;7652;53.584;9.998;2023-08-01T16:24:54;19.10;99.90
15103;DHT22;7652;53.584;9.998;2023-08-01T16:28:16;19.00;99.90
15103;DHT22;7652;53.584;9.998;2023-08-01T16:31:38;19.10;99.90
15103;DHT22;7652;53.584;9.998;2023-08-01T16:35:00;19.00;99.90
15103;DHT22;7652;53.584;9.998;2023-08-01T16:38:22;18.90;99.90
15103;DHT22;7652;53.584;9.998;2023-08-01T16:41:44;18.80;99.90
15103;DHT22;7652;53.584;9.998;2023-08-01T16:45:06;18.80;99.90
15103;DHT22;7652;53.584;9.998;2023-08-01T16:48:31;18.80;99.90
15103;DHT22;7652;53.584;9.998;2023-08-01T16:51:53;18.80;99.90
15103;DHT22;7652;53.584;9.998;2023-08-01T16:55:15;18.90;99.90
15103;DHT22;7652;53.584;9.998;2023-08-01T16:58:37;19.00;99.90
15103;DHT22;7652;53.584;9.998;2023-08-01T17:01:59;19.10;99.90
15103;DHT22;7652;53.584;9.998;2023-08-01T17:05:21;19.10;99.90
15103;DHT22;7652;53.584;9.998;2023-08-01T17:08:43;19.10;99.90
15103;DHT22;7652;53.584;9.998;2023-08-01T17:12:06;19.10;99.90
15103;DHT22;7652;53.584;9.998;2023-08-01T17:15:28;19.10;99.90
15103;DHT22;7652;53.584;9.998;2023-08-01T17:18:50;19.10;99.90
15103;DHT22;7652;53.584;9.998;2023-08-01T17:22:12;19.10;99.90
15103;DHT22;7652;53.584;9.998;2023-08-01T17:25:34;19.20;99.90
15103;DHT22;7652;53.584;9.998;2023-08-01T17:28:56;19.20;99.90
15103;DHT22;7652;53.584;9.998;2023-08-01T17:32:17;19.20;99.90
15103;DHT22;7652;53.584;9.998;2023-08-01T17:35:41;19.10;99.90
15103;DHT22;7652;53.584;9.998;2023-08-01T17:39:04;19.10;99.90
15103;DHT22;7652;53.584;9.998;2023-08-01T17:42:25;19.10;99.90
15103;DHT22;7652;53.584;9.998;2023-08-01T17:45:47;19.00;99.90
15103;DHT22;7652;53.584;9.998;2023-08-01T17:49:08;18.90;99.90
15103;DHT22;7652;53.584;9.998;2023-08-01T17:52:30;18.80;99.90
15103;DHT22;7652;53.584;9.998;2023-08-01T17:55:52;18.70;99.90
15103;DHT22;7652;53.584;9.998;2023-08-01T17:59:14;18.60;99.90
15103;DHT22;7652;53.584;9.998;2023-08-01T18:02:36;18.50;99.90
15103;DHT22;7652;53.584;9.998;2023-08-01T18:06:05;18.30;99.90
15103;DHT22;7652;53.584;9.998;2023-08-01T18:09:26;18.20;99.90
15103;DHT22;7652;53.584;9.998;2023-08-01T18:12:49;18.20;99.90
15103;DHT22;7652;53.584;9.998;2023-08-01T18:16:18;18.00;99.90
15103;DHT22;7652;53.584;9.998;2023-08-01T18:19:40;18.00;99.90
15103;DHT22;7652;53.584;9.998;2023-08-01T18:23:01;18.00;99.90
15103;DHT22;7652;53.584;9.998;2023-08-01T18:26:23;17.90;99.90
15103;DHT22;7652;53.584;9.998;2023-08-01T18:29:46;17.90;99.90
15103;DHT22;7652;53.584;9.998;2023-08-01T18:33:08;17.80;99.90
15103;DHT22;7652;53.584;9.998;2023-08-01T18:36:29;17.90;99.90
15103;DHT22;7652;53.584;9.998;2023-08-01T18:39:52;17.90;99.90
15103;DHT22;7652;53.584;9.998;2023-08-01T18:43:14;17.80;99.90
15103;DHT22;7652;53.584;9.998;2023-08-01T18:46:37;17.90;99.90
15103;DHT22;7652;53.584;9.998;2023-08-01T18:50:00;17.90;99.90
15103;DHT22;7652;53.584;9.998;2023-08-01T18:53:22;17.90;99.90
15103;DHT22;7652;53.584;9.998;2023-08-01T18:56:44;17.90;99.90
15103;DHT22;7652;53.584;9.998;2023-08-01T19:00:07;17.90;99.90
15103;DHT22;7652;53.584;9.998;2023-08-01T19:03:30;17.90;99.90
15103;DHT22;7652;53.584;9.998;2023-08-01T19:06:51;17.70;99.90
15103;DHT22;7652;53.584;9.998;2023-08-01T19:10:12;17.70;99.90
15103;DHT22;7652;53.584;9.998;2023-08-01T19:13:35;17.70;99.90
15103;DHT22;7652;53.584;9.998;2023-08-01T19:16:57;17.70;99.90
15103;DHT22;7652;53.584;9.998;2023-08-01T19:20:20;17.60;99.90
15103;DHT22;7652;53.584;9.998;2023-08-01T19:23:41;17.60;99.90
15103;DHT22;7652;53.584;9.998;2023-08-01T19:27:03;17.60;99.90
15103;DHT22;7652;53.584;9.998;2023-08-01T19:30:25;17.50;99.90
15103;DHT22;7652;53.584;9.998;2023-08-01T19:33:49;17.60;99.90
15103;DHT22;7652;53.584;9.998;2023-08-01T19:37:13;17.50;99.90
15103;DHT22;7652;53.584;9.998;2023-08-01T19:40:38;17.50;99.90
15103;DHT22;7652;53.584;9.998;2023-08-01T19:44:00;17.60;99.90
15103;DHT22;7652;53.584;9.998;2023-08-01T19:47:21;17.50;99.90
15103;DHT22;7652;53.584;9.998;2023-08-01T19:50:43;17.50;99.90
15103;DHT22;7652;53.584;9.998;2023-08-01T19:54:06;17.50;99.90
15103;DHT22;7652;53.584;9.998;2023-08-01T19:57:27;17.50;99.90
15103;DHT22;7652;53.584;9.998;2023-08-01T20:00:50;17.50;99.90
15103;DHT22;7652;53.584;9.998;2023-08-01T20:04:12;17.50;99.90
15103;DHT22;7652;53.584;9.998;2023-08-01T20:07:34;17.50;99.90
15103;DHT22;7652;53.584;9.998;2023-08-01T20:10:57;17.50;99.90
15103;DHT22;7652;53.584;9.998;2023-08-01T20:14:19;17.50;99.90
15103;DHT22;7652;53.584;9.998;2023-08-01T20:17:41;17.50;99.90
15103;DHT22;7652;53.584;9.998;2023-08-01T20:21:02;17.40;99.90
15103;DHT22;7652;53.584;9.998;2023-08-01T20:24:25;17.40;99.90
15103;DHT22;7652;53.584;9.998;2023-08-01T20:27:48;17.40;99.90
15103;DHT22;7652;53.584;9.998;2023-08-01T20:31:09;17.40;99.90
15103;DHT22;7652;53.584;9.998;2023-08-01T20:34:31;17.30;99.90
15103;DHT22;7652;53.584;9.998;2023-08-01T20:37:52;17.20;99.90
15103;DHT22;7652;53.584;9.998;2023-08-01T20:41:15;17.20;99.90
15103;DHT22;7652;53.584;9.998;2023-08-01T20:44:38;17.20;99.90
15103;DHT22;7652;53.584;9.998;2023-08-01T20:48:00;17.20;99.90
15103;DHT22;7652;53.584;9.998;2023-08-01T20:51:28;17.20;99.90
15103;DHT22;7652;53.584;9.998;2023-08-01T20:54:50;17.20;99.90
15103;DHT22;7652;53.584;9.998;2023-08-01T20:58:11;17.10;99.90
15103;DHT22;7652;53.584;9.998;2023-08-01T21:01:34;17.10;99.90
15103;DHT22;7652;53.584;9.998;2023-08-01T21:04:56;17.20;99.90
15103;DHT22;7652;53.584;9.998;2023-08-01T21:08:18;17.20;99.90
15103;DHT22;7652;53.584;9.998;2023-08-01T21:11:40;17.20;99.90
15103;DHT22;7652;53.584;9.998;2023-08-01T21:15:01;17.30;99.90
15103;DHT22;7652;53.584;9.998;2023-08-01T21:18:24;17.30;99.90
15103;DHT22;7652;53.584;9.998;2023-08-01T21:21:46;17.20;99.90
15103;DHT22;7652;53.584;9.998;2023-08-01T21:25:08;17.20;99.90
15103;DHT22;7652;53.584;9.998;2023-08-01T21:28:30;17.10;99.90
15103;DHT22;7652;53.584;9.998;2023-08-01T21:31:51;17.10;99.90
15103;DHT22;7652;53.584;9.998;2023-08-01T21:35:14;17.10;99.90